sensor_id;sensor_type;location;lat;lon;timestamp;temperature;humidity
26909;DHT22;14477;51.038;4.588;2023-04-16T00:01:39;12.00;82.40
26909;DHT22;14477;51.038;4.588;2023-04-16T00:04:05;12.00;82.50
26909;DHT22;14477;51.038;4.588;2023-04-16T00:06:31;12.00;82.60
26909;DHT22;14477;51.038;4.588;2023-04-16T00:08:56;12.00;82.60
26909;DHT22;14477;51.038;4.588;2023-04-16T00:11:22;12.00;82.70
26909;DHT22;14477;51.038;4.588;2023-04-16T00:13:48;12.00;82.70
26909;DHT22;14477;51.038;4.588;2023-04-16T00:16:14;12.00;82.70
26909;DHT22;14477;51.038;4.588;2023-04-16T00:18:40;12.00;83.60
26909;DHT22;14477;51.038;4.588;2023-04-16T00:21:06;12.00;82.70
26909;DHT22;14477;51.038;4.588;2023-04-16T00:23:32;11.90;82.70
26909;DHT22;14477;51.038;4.588;2023-04-16T00:25:58;12.00;82.90
26909;DHT22;14477;51.038;4.588;2023-04-16T00:28:26;11.90;82.90
26909;DHT22;14477;51.038;4.588;2023-04-16T00:30:53;11.90;83.00
26909;DHT22;14477;51.038;4.588;2023-04-16T00:33:19;11.90;83.10
26909;DHT22;14477;51.038;4.588;2023-04-16T00:35:45;11.90;83.10
26909;DHT22;14477;51.038;4.588;2023-04-16T00:38:11;11.90;83.20
26909;DHT22;14477;51.038;4.588;2023-04-16T00:40:37;11.90;83.30
26909;DHT22;14477;51.038;4.588;2023-04-16T00:43:03;11.90;83.40
26909;DHT22;14477;51.038;4.588;2023-04-16T00:45:29;11.90;83.40
26909;DHT22;14477;51.038;4.588;2023-04-16T00:47:55;11.90;83.50
26909;DHT22;14477;51.038;4.588;2023-04-16T00:50:22;11.90;83.50
26909;DHT22;14477;51.038;4.588;2023-04-16T00:52:48;11.90;83.60
26909;DHT22;14477;51.038;4.588;2023-04-16T00:55:17;11.90;83.60
26909;DHT22;14477;51.038;4.588;2023-04-16T00:57:44;11.90;83.60
26909;DHT22;14477;51.038;4.588;2023-04-16T01:00:11;11.90;83.70
26909;DHT22;14477;51.038;4.588;2023-04-16T01:02:37;11.90;83.70
26909;DHT22;14477;51.038;4.588;2023-04-16T01:05:04;11.90;83.90
26909;DHT22;14477;51.038;4.588;2023-04-16T01:07:30;11.90;83.90
26909;DHT22;14477;51.038;4.588;2023-04-16T01:09:55;11.90;84.00
26909;DHT22;14477;51.038;4.588;2023-04-16T01:12:21;11.90;84.10
26909;DHT22;14477;51.038;4.588;2023-04-16T01:14:47;11.90;84.20
26909;DHT22;14477;51.038;4.588;2023-04-16T01:17:13;11.90;84.20
26909;DHT22;14477;51.038;4.588;2023-04-16T01:19:39;11.90;84.30
26909;DHT22;14477;51.038;4.588;2023-04-16T01:22:04;11.80;84.30
26909;DHT22;14477;51.038;4.588;2023-04-16T01:24:30;11.90;84.40
26909;DHT22;14477;51.038;4.588;2023-04-16T01:26:57;11.90;84.50
26909;DHT22;14477;51.038;4.588;2023-04-16T01:29:23;11.90;84.50
26909;DHT22;14477;51.038;4.588;2023-04-16T01:31:49;11.80;84.60
26909;DHT22;14477;51.038;4.588;2023-04-16T01:34:15;11.80;84.60
26909;DHT22;14477;51.038;4.588;2023-04-16T01:36:41;11.80;84.70
26909;DHT22;14477;51.038;4.588;2023-04-16T01:39:07;11.90;85.60
26909;DHT22;14477;51.038;4.588;2023-04-16T01:41:36;11.90;84.90
26909;DHT22;14477;51.038;4.588;2023-04-16T01:44:01;11.90;84.90
26909;DHT22;14477;51.038;4.588;2023-04-16T01:46:28;11.90;85.00
26909;DHT22;14477;51.038;4.588;2023-04-16T01:48:56;11.80;84.90
26909;DHT22;14477;51.038;4.588;2023-04-16T01:51:22;11.80;85.00
26909;DHT22;14477;51.038;4.588;2023-04-16T01:53:49;11.80;85.10
26909;DHT22;14477;51.038;4.588;2023-04-16T01:56:15;11.80;85.20
26909;DHT22;14477;51.038;4.588;2023-04-16T01:58:41;11.80;85.20
26909;DHT22;14477;51.038;4.588;2023-04-16T02:01:08;11.80;85.40
26909;DHT22;14477;51.038;4.588;2023-04-16T02:03:34;11.80;85.40
26909;DHT22;14477;51.038;4.588;2023-04-16T02:05:59;11.80;85.50
26909;DHT22;14477;51.038;4.588;2023-04-16T02:08:26;11.80;85.60
26909;DHT22;14477;51.038;4.588;2023-04-16T02:10:52;11.80;85.70
26909;DHT22;14477;51.038;4.588;2023-04-16T02:13:18;11.80;85.70
26909;DHT22;14477;51.038;4.588;2023-04-16T02:15:49;11.90;85.90
26909;DHT22;14477;51.038;4.588;2023-04-16T02:18:15;11.90;85.90
26909;DHT22;14477;51.038;4.588;2023-04-16T02:20:43;11.90;86.10
26909;DHT22;14477;51.038;4.588;2023-04-16T02:23:09;11.90;86.00
26909;DHT22;14477;51.038;4.588;2023-04-16T02:25:44;11.80;86.00
26909;DHT22;14477;51.038;4.588;2023-04-16T02:28:12;11.80;86.30
26909;DHT22;14477;51.038;4.588;2023-04-16T02:30:39;11.80;86.30
26909;DHT22;14477;51.038;4.588;2023-04-16T02:33:07;11.80;86.50
26909;DHT22;14477;51.038;4.588;2023-04-16T02:35:34;11.80;86.60
26909;DHT22;14477;51.038;4.588;2023-04-16T02:38:00;11.70;86.80
26909;DHT22;14477;51.038;4.588;2023-04-16T02:40:26;11.70;86.90
26909;DHT22;14477;51.038;4.588;2023-04-16T02:42:53;11.70;87.00
26909;DHT22;14477;51.038;4.588;2023-04-16T02:45:19;11.60;87.10
26909;DHT22;14477;51.038;4.588;2023-04-16T02:47:46;11.60;87.20
26909;DHT22;14477;51.038;4.588;2023-04-16T02:50:11;11.60;87.40
26909;DHT22;14477;51.038;4.588;2023-04-16T02:52:37;11.50;87.50
26909;DHT22;14477;51.038;4.588;2023-04-16T02:55:03;11.50;88.40
26909;DHT22;14477;51.038;4.588;2023-04-16T02:57:29;11.50;87.70
26909;DHT22;14477;51.038;4.588;2023-04-16T02:59:54;11.50;87.90
26909;DHT22;14477;51.038;4.588;2023-04-16T03:02:20;11.40;88.00
26909;DHT22;14477;51.038;4.588;2023-04-16T03:04:46;11.50;88.20
26909;DHT22;14477;51.038;4.588;2023-04-16T03:07:12;11.40;88.40
26909;DHT22;14477;51.038;4.588;2023-04-16T03:09:38;11.40;88.60
26909;DHT22;14477;51.038;4.588;2023-04-16T03:12:04;11.40;88.70
26909;DHT22;14477;51.038;4.588;2023-04-16T03:14:31;11.40;88.90
26909;DHT22;14477;51.038;4.588;2023-04-16T03:16:57;11.40;89.00
26909;DHT22;14477;51.038;4.588;2023-04-16T03:19:23;11.40;89.20
26909;DHT22;14477;51.038;4.588;2023-04-16T03:21:49;11.40;89.20
26909;DHT22;14477;51.038;4.588;2023-04-16T03:24:14;11.40;89.30
26909;DHT22;14477;51.038;4.588;2023-04-16T03:26:40;11.40;89.40
26909;DHT22;14477;51.038;4.588;2023-04-16T03:29:06;11.40;89.50
26909;DHT22;14477;51.038;4.588;2023-04-16T03:31:32;11.40;89.70
26909;DHT22;14477;51.038;4.588;2023-04-16T03:33:57;11.30;89.70
26909;DHT22;14477;51.038;4.588;2023-04-16T03:36:23;11.40;90.00
26909;DHT22;14477;51.038;4.588;2023-04-16T03:38:51;11.30;90.00
26909;DHT22;14477;51.038;4.588;2023-04-16T03:41:17;11.30;90.10
26909;DHT22;14477;51.038;4.588;2023-04-16T03:43:43;11.30;90.20
26909;DHT22;14477;51.038;4.588;2023-04-16T03:46:09;11.30;90.50
26909;DHT22;14477;51.038;4.588;2023-04-16T03:48:35;11.30;90.30
26909;DHT22;14477;51.038;4.588;2023-04-16T03:51:01;11.30;90.30
26909;DHT22;14477;51.038;4.588;2023-04-16T03:53:27;11.30;90.30
26909;DHT22;14477;51.038;4.588;2023-04-16T03:55:53;11.30;90.40
26909;DHT22;14477;51.038;4.588;2023-04-16T03:58:19;11.30;90.40
26909;DHT22;14477;51.038;4.588;2023-04-16T04:00:44;11.20;90.40
26909;DHT22;14477;51.038;4.588;2023-04-16T04:03:10;11.30;90.50
26909;DHT22;14477;51.038;4.588;2023-04-16T04:05:39;11.30;90.60
26909;DHT22;14477;51.038;4.588;2023-04-16T04:08:06;11.30;90.60
26909;DHT22;14477;51.038;4.588;2023-04-16T04:10:32;11.20;90.60
26909;DHT22;14477;51.038;4.588;2023-04-16T04:12:59;11.30;90.70
26909;DHT22;14477;51.038;4.588;2023-04-16T04:15:25;11.30;90.80
26909;DHT22;14477;51.038;4.588;2023-04-16T04:17:50;11.20;90.80
26909;DHT22;14477;51.038;4.588;2023-04-16T04:20:16;11.20;90.80
26909;DHT22;14477;51.038;4.588;2023-04-16T04:22:42;11.20;90.90
26909;DHT22;14477;51.038;4.588;2023-04-16T04:25:09;11.20;90.90
26909;DHT22;14477;51.038;4.588;2023-04-16T04:27:35;11.20;91.00
26909;DHT22;14477;51.038;4.588;2023-04-16T04:30:01;11.20;91.00
26909;DHT22;14477;51.038;4.588;2023-04-16T04:32:28;11.20;91.10
26909;DHT22;14477;51.038;4.588;2023-04-16T04:34:54;11.20;91.10
26909;DHT22;14477;51.038;4.588;2023-04-16T04:37:20;11.20;91.10
26909;DHT22;14477;51.038;4.588;2023-04-16T04:39:45;11.20;91.20
26909;DHT22;14477;51.038;4.588;2023-04-16T04:42:11;11.20;91.20
26909;DHT22;14477;51.038;4.588;2023-04-16T04:44:37;11.10;91.30
26909;DHT22;14477;51.038;4.588;2023-04-16T04:47:02;11.20;91.30
26909;DHT22;14477;51.038;4.588;2023-04-16T04:49:28;11.20;91.40
26909;DHT22;14477;51.038;4.588;2023-04-16T04:51:55;11.20;91.40
26909;DHT22;14477;51.038;4.588;2023-04-16T04:54:21;11.10;91.40
26909;DHT22;14477;51.038;4.588;2023-04-16T04:56:46;11.10;91.50
26909;DHT22;14477;51.038;4.588;2023-04-16T04:59:12;11.10;91.50
26909;DHT22;14477;51.038;4.588;2023-04-16T05:01:38;11.10;91.50
26909;DHT22;14477;51.038;4.588;2023-04-16T05:04:04;11.10;91.50
26909;DHT22;14477;51.038;4.588;2023-04-16T05:06:30;11.10;91.60
26909;DHT22;14477;51.038;4.588;2023-04-16T05:08:56;11.10;91.60
26909;DHT22;14477;51.038;4.588;2023-04-16T05:11:21;11.10;91.70
26909;DHT22;14477;51.038;4.588;2023-04-16T05:13:47;11.10;91.70
26909;DHT22;14477;51.038;4.588;2023-04-16T05:16:13;11.10;91.70
26909;DHT22;14477;51.038;4.588;2023-04-16T05:18:38;11.10;91.70
26909;DHT22;14477;51.038;4.588;2023-04-16T05:21:04;11.10;91.80
26909;DHT22;14477;51.038;4.588;2023-04-16T05:23:30;11.10;91.80
26909;DHT22;14477;51.038;4.588;2023-04-16T05:25:56;11.10;91.90
26909;DHT22;14477;51.038;4.588;2023-04-16T05:28:21;11.10;91.90
26909;DHT22;14477;51.038;4.588;2023-04-16T05:30:47;11.10;91.90
26909;DHT22;14477;51.038;4.588;2023-04-16T05:33:13;11.10;92.00
26909;DHT22;14477;51.038;4.588;2023-04-16T05:35:38;11.10;92.00
26909;DHT22;14477;51.038;4.588;2023-04-16T05:38:04;11.10;92.00
26909;DHT22;14477;51.038;4.588;2023-04-16T05:40:31;11.10;92.10
26909;DHT22;14477;51.038;4.588;2023-04-16T05:42:56;11.10;92.10
26909;DHT22;14477;51.038;4.588;2023-04-16T05:45:22;11.10;92.10
26909;DHT22;14477;51.038;4.588;2023-04-16T05:47:48;11.10;92.10
26909;DHT22;14477;51.038;4.588;2023-04-16T05:50:14;11.10;92.20
26909;DHT22;14477;51.038;4.588;2023-04-16T05:52:40;11.10;92.20
26909;DHT22;14477;51.038;4.588;2023-04-16T05:55:06;11.10;92.30
26909;DHT22;14477;51.038;4.588;2023-04-16T05:57:32;11.10;92.30
26909;DHT22;14477;51.038;4.588;2023-04-16T05:59:58;11.10;92.70
26909;DHT22;14477;51.038;4.588;2023-04-16T06:02:23;11.10;92.40
26909;DHT22;14477;51.038;4.588;2023-04-16T06:04:49;11.10;92.40
26909;DHT22;14477;51.038;4.588;2023-04-16T06:07:15;11.10;92.50
26909;DHT22;14477;51.038;4.588;2023-04-16T06:09:41;11.10;92.50
26909;DHT22;14477;51.038;4.588;2023-04-16T06:12:06;11.10;92.60
26909;DHT22;14477;51.038;4.588;2023-04-16T06:14:32;11.10;92.60
26909;DHT22;14477;51.038;4.588;2023-04-16T06:16:58;11.10;92.60
26909;DHT22;14477;51.038;4.588;2023-04-16T06:19:24;11.10;92.70
26909;DHT22;14477;51.038;4.588;2023-04-16T06:21:50;11.10;92.70
26909;DHT22;14477;51.038;4.588;2023-04-16T06:24:15;11.10;92.80
26909;DHT22;14477;51.038;4.588;2023-04-16T06:26:43;11.10;92.80
26909;DHT22;14477;51.038;4.588;2023-04-16T06:29:09;11.10;92.90
26909;DHT22;14477;51.038;4.588;2023-04-16T06:31:36;11.10;92.90
26909;DHT22;14477;51.038;4.588;2023-04-16T06:34:02;11.10;93.00
26909;DHT22;14477;51.038;4.588;2023-04-16T06:36:28;11.10;93.00
26909;DHT22;14477;51.038;4.588;2023-04-16T06:38:53;11.10;93.00
26909;DHT22;14477;51.038;4.588;2023-04-16T06:41:19;11.10;93.00
26909;DHT22;14477;51.038;4.588;2023-04-16T06:43:47;11.20;93.10
26909;DHT22;14477;51.038;4.588;2023-04-16T06:46:12;11.20;93.10
26909;DHT22;14477;51.038;4.588;2023-04-16T06:48:38;11.20;93.20
26909;DHT22;14477;51.038;4.588;2023-04-16T06:51:04;11.20;93.20
26909;DHT22;14477;51.038;4.588;2023-04-16T06:53:30;11.20;93.30
26909;DHT22;14477;51.038;4.588;2023-04-16T06:55:56;11.10;93.30
26909;DHT22;14477;51.038;4.588;2023-04-16T06:58:22;11.20;93.40
26909;DHT22;14477;51.038;4.588;2023-04-16T07:00:47;11.20;93.40
26909;DHT22;14477;51.038;4.588;2023-04-16T07:03:13;11.20;93.40
26909;DHT22;14477;51.038;4.588;2023-04-16T07:05:39;11.20;93.50
26909;DHT22;14477;51.038;4.588;2023-04-16T07:08:05;11.20;93.90
26909;DHT22;14477;51.038;4.588;2023-04-16T07:10:31;11.20;93.60
26909;DHT22;14477;51.038;4.588;2023-04-16T07:12:56;11.20;93.60
26909;DHT22;14477;51.038;4.588;2023-04-16T07:15:22;11.20;93.70
26909;DHT22;14477;51.038;4.588;2023-04-16T07:17:48;11.30;93.70
26909;DHT22;14477;51.038;4.588;2023-04-16T07:20:14;11.30;93.80
26909;DHT22;14477;51.038;4.588;2023-04-16T07:22:39;11.30;93.80
26909;DHT22;14477;51.038;4.588;2023-04-16T07:25:05;11.30;93.80
26909;DHT22;14477;51.038;4.588;2023-04-16T07:27:31;11.30;93.90
26909;DHT22;14477;51.038;4.588;2023-04-16T07:29:57;11.40;94.30
26909;DHT22;14477;51.038;4.588;2023-04-16T07:32:23;11.40;94.00
26909;DHT22;14477;51.038;4.588;2023-04-16T07:34:48;11.40;94.00
26909;DHT22;14477;51.038;4.588;2023-04-16T07:37:14;11.40;94.30
26909;DHT22;14477;51.038;4.588;2023-04-16T07:39:40;11.40;94.00
26909;DHT22;14477;51.038;4.588;2023-04-16T07:42:06;11.40;94.00
26909;DHT22;14477;51.038;4.588;2023-04-16T07:44:32;11.50;94.10
26909;DHT22;14477;51.038;4.588;2023-04-16T07:46:57;11.50;94.10
26909;DHT22;14477;51.038;4.588;2023-04-16T07:49:23;11.50;94.10
26909;DHT22;14477;51.038;4.588;2023-04-16T07:51:49;11.50;94.10
26909;DHT22;14477;51.038;4.588;2023-04-16T07:54:14;11.50;94.20
26909;DHT22;14477;51.038;4.588;2023-04-16T07:56:40;11.50;94.20
26909;DHT22;14477;51.038;4.588;2023-04-16T07:59:06;11.50;94.20
26909;DHT22;14477;51.038;4.588;2023-04-16T08:01:31;11.50;94.30
26909;DHT22;14477;51.038;4.588;2023-04-16T08:03:57;11.50;94.30
26909;DHT22;14477;51.038;4.588;2023-04-16T08:06:24;11.50;94.30
26909;DHT22;14477;51.038;4.588;2023-04-16T08:08:51;11.50;94.40
26909;DHT22;14477;51.038;4.588;2023-04-16T08:11:16;11.50;94.40
26909;DHT22;14477;51.038;4.588;2023-04-16T08:13:42;11.60;94.40
26909;DHT22;14477;51.038;4.588;2023-04-16T08:16:08;11.60;94.50
26909;DHT22;14477;51.038;4.588;2023-04-16T08:18:34;11.60;94.50
26909;DHT22;14477;51.038;4.588;2023-04-16T08:21:00;11.60;94.50
26909;DHT22;14477;51.038;4.588;2023-04-16T08:23:25;11.60;94.50
26909;DHT22;14477;51.038;4.588;2023-04-16T08:25:51;11.60;94.60
26909;DHT22;14477;51.038;4.588;2023-04-16T08:28:17;11.60;94.60
26909;DHT22;14477;51.038;4.588;2023-04-16T08:30:42;11.60;94.60
26909;DHT22;14477;51.038;4.588;2023-04-16T08:33:10;11.60;94.70
26909;DHT22;14477;51.038;4.588;2023-04-16T08:35:36;11.60;94.70
26909;DHT22;14477;51.038;4.588;2023-04-16T08:38:02;11.60;94.80
26909;DHT22;14477;51.038;4.588;2023-04-16T08:40:30;11.70;94.80
26909;DHT22;14477;51.038;4.588;2023-04-16T08:42:58;11.70;94.80
26909;DHT22;14477;51.038;4.588;2023-04-16T08:45:26;11.70;94.90
26909;DHT22;14477;51.038;4.588;2023-04-16T08:47:52;11.70;94.90
26909;DHT22;14477;51.038;4.588;2023-04-16T08:50:24;11.70;94.90
26909;DHT22;14477;51.038;4.588;2023-04-16T08:53:05;11.70;95.00
26909;DHT22;14477;51.038;4.588;2023-04-16T08:55:46;11.70;95.00
26909;DHT22;14477;51.038;4.588;2023-04-16T08:58:14;11.70;95.10
26909;DHT22;14477;51.038;4.588;2023-04-16T09:00:41;11.70;95.00
26909;DHT22;14477;51.038;4.588;2023-04-16T09:03:08;11.70;95.10
26909;DHT22;14477;51.038;4.588;2023-04-16T09:05:35;11.70;95.10
26909;DHT22;14477;51.038;4.588;2023-04-16T09:08:00;11.80;95.10
26909;DHT22;14477;51.038;4.588;2023-04-16T09:10:26;11.80;95.20
26909;DHT22;14477;51.038;4.588;2023-04-16T09:12:56;11.80;95.20
26909;DHT22;14477;51.038;4.588;2023-04-16T09:15:22;11.80;95.20
26909;DHT22;14477;51.038;4.588;2023-04-16T09:17:48;11.80;95.20
26909;DHT22;14477;51.038;4.588;2023-04-16T09:20:14;11.80;95.30
26909;DHT22;14477;51.038;4.588;2023-04-16T09:22:40;11.80;95.30
26909;DHT22;14477;51.038;4.588;2023-04-16T09:25:08;11.90;95.40
26909;DHT22;14477;51.038;4.588;2023-04-16T09:27:35;11.90;95.40
26909;DHT22;14477;51.038;4.588;2023-04-16T09:30:18;11.90;95.50
26909;DHT22;14477;51.038;4.588;2023-04-16T09:32:46;11.90;95.50
26909;DHT22;14477;51.038;4.588;2023-04-16T09:35:12;11.90;95.50
26909;DHT22;14477;51.038;4.588;2023-04-16T09:37:39;11.90;95.50
26909;DHT22;14477;51.038;4.588;2023-04-16T09:40:05;11.90;95.50
26909;DHT22;14477;51.038;4.588;2023-04-16T09:42:33;12.00;95.50
26909;DHT22;14477;51.038;4.588;2023-04-16T09:44:59;11.90;95.50
26909;DHT22;14477;51.038;4.588;2023-04-16T09:47:37;12.00;95.60
26909;DHT22;14477;51.038;4.588;2023-04-16T09:50:04;12.00;95.60
26909;DHT22;14477;51.038;4.588;2023-04-16T09:52:30;12.00;95.60
26909;DHT22;14477;51.038;4.588;2023-04-16T09:54:56;12.00;95.60
26909;DHT22;14477;51.038;4.588;2023-04-16T09:57:23;12.00;95.70
26909;DHT22;14477;51.038;4.588;2023-04-16T10:00:00;12.00;95.70
26909;DHT22;14477;51.038;4.588;2023-04-16T10:02:27;12.00;95.70
26909;DHT22;14477;51.038;4.588;2023-04-16T10:04:54;12.10;95.70
26909;DHT22;14477;51.038;4.588;2023-04-16T10:07:20;12.10;95.70
26909;DHT22;14477;51.038;4.588;2023-04-16T10:09:48;12.10;95.70
26909;DHT22;14477;51.038;4.588;2023-04-16T10:12:15;12.10;95.80
26909;DHT22;14477;51.038;4.588;2023-04-16T10:14:41;12.10;95.80
26909;DHT22;14477;51.038;4.588;2023-04-16T10:17:08;12.10;95.90
26909;DHT22;14477;51.038;4.588;2023-04-16T10:19:34;12.10;95.90
26909;DHT22;14477;51.038;4.588;2023-04-16T10:22:01;12.20;95.90
26909;DHT22;14477;51.038;4.588;2023-04-16T10:24:31;12.20;95.90
26909;DHT22;14477;51.038;4.588;2023-04-16T10:26:58;12.20;95.90
26909;DHT22;14477;51.038;4.588;2023-04-16T10:29:28;12.20;95.90
26909;DHT22;14477;51.038;4.588;2023-04-16T10:31:55;12.20;96.00
26909;DHT22;14477;51.038;4.588;2023-04-16T10:34:22;12.20;96.00
26909;DHT22;14477;51.038;4.588;2023-04-16T10:36:52;12.20;96.10
26909;DHT22;14477;51.038;4.588;2023-04-16T10:39:19;12.30;96.50
26909;DHT22;14477;51.038;4.588;2023-04-16T10:41:45;12.30;96.20
26909;DHT22;14477;51.038;4.588;2023-04-16T10:44:11;12.30;96.20
26909;DHT22;14477;51.038;4.588;2023-04-16T10:46:39;12.30;96.20
26909;DHT22;14477;51.038;4.588;2023-04-16T10:49:24;12.30;96.30
26909;DHT22;14477;51.038;4.588;2023-04-16T10:51:59;12.30;96.40
26909;DHT22;14477;51.038;4.588;2023-04-16T10:54:30;12.40;96.40
26909;DHT22;14477;51.038;4.588;2023-04-16T10:56:58;12.40;96.40
26909;DHT22;14477;51.038;4.588;2023-04-16T10:59:30;12.40;96.40
26909;DHT22;14477;51.038;4.588;2023-04-16T11:01:58;12.40;96.50
26909;DHT22;14477;51.038;4.588;2023-04-16T11:04:34;12.50;96.50
26909;DHT22;14477;51.038;4.588;2023-04-16T11:09:55;12.50;96.50
26909;DHT22;14477;51.038;4.588;2023-04-16T11:15:01;12.50;96.50
26909;DHT22;14477;51.038;4.588;2023-04-16T11:17:30;12.50;96.40
26909;DHT22;14477;51.038;4.588;2023-04-16T11:19:56;12.60;96.50
26909;DHT22;14477;51.038;4.588;2023-04-16T11:22:21;12.50;96.50
26909;DHT22;14477;51.038;4.588;2023-04-16T11:24:56;12.50;96.50
26909;DHT22;14477;51.038;4.588;2023-04-16T11:27:23;12.60;96.50
26909;DHT22;14477;51.038;4.588;2023-04-16T11:30:03;12.60;96.60
26909;DHT22;14477;51.038;4.588;2023-04-16T11:32:37;12.60;96.70
26909;DHT22;14477;51.038;4.588;2023-04-16T11:35:16;12.60;96.70
26909;DHT22;14477;51.038;4.588;2023-04-16T11:37:43;12.60;96.60
26909;DHT22;14477;51.038;4.588;2023-04-16T11:40:10;12.60;96.70
26909;DHT22;14477;51.038;4.588;2023-04-16T11:42:40;12.70;96.80
26909;DHT22;14477;51.038;4.588;2023-04-16T11:45:07;12.70;96.80
26909;DHT22;14477;51.038;4.588;2023-04-16T11:47:52;12.70;96.80
26909;DHT22;14477;51.038;4.588;2023-04-16T11:50:24;12.70;96.90
26909;DHT22;14477;51.038;4.588;2023-04-16T11:52:52;12.80;97.00
26909;DHT22;14477;51.038;4.588;2023-04-16T11:55:19;12.80;97.10
26909;DHT22;14477;51.038;4.588;2023-04-16T11:57:45;12.80;97.10
26909;DHT22;14477;51.038;4.588;2023-04-16T12:00:11;12.90;97.10
26909;DHT22;14477;51.038;4.588;2023-04-16T12:02:39;12.90;97.10
26909;DHT22;14477;51.038;4.588;2023-04-16T12:07:55;13.00;97.10
26909;DHT22;14477;51.038;4.588;2023-04-16T12:10:21;13.00;97.10
26909;DHT22;14477;51.038;4.588;2023-04-16T12:12:47;13.00;97.00
26909;DHT22;14477;51.038;4.588;2023-04-16T12:15:13;13.10;97.10
26909;DHT22;14477;51.038;4.588;2023-04-16T12:17:39;13.10;97.10
26909;DHT22;14477;51.038;4.588;2023-04-16T12:20:10;13.10;97.10
26909;DHT22;14477;51.038;4.588;2023-04-16T12:22:43;13.10;97.10
26909;DHT22;14477;51.038;4.588;2023-04-16T12:25:14;13.20;97.20
26909;DHT22;14477;51.038;4.588;2023-04-16T12:27:42;13.20;97.10
26909;DHT22;14477;51.038;4.588;2023-04-16T12:30:08;13.20;97.20
26909;DHT22;14477;51.038;4.588;2023-04-16T12:32:34;13.20;97.20
26909;DHT22;14477;51.038;4.588;2023-04-16T12:35:00;13.20;97.20
26909;DHT22;14477;51.038;4.588;2023-04-16T12:37:26;13.30;97.10
26909;DHT22;14477;51.038;4.588;2023-04-16T12:39:53;13.30;97.10
26909;DHT22;14477;51.038;4.588;2023-04-16T12:42:19;13.30;97.10
26909;DHT22;14477;51.038;4.588;2023-04-16T12:44:45;13.30;97.20
26909;DHT22;14477;51.038;4.588;2023-04-16T12:47:11;13.30;97.30
26909;DHT22;14477;51.038;4.588;2023-04-16T12:49:36;13.40;97.40
26909;DHT22;14477;51.038;4.588;2023-04-16T12:52:02;13.40;97.40
26909;DHT22;14477;51.038;4.588;2023-04-16T12:54:28;13.40;97.40
26909;DHT22;14477;51.038;4.588;2023-04-16T12:56:56;13.50;97.50
26909;DHT22;14477;51.038;4.588;2023-04-16T12:59:22;13.50;97.50
26909;DHT22;14477;51.038;4.588;2023-04-16T13:01:47;13.60;97.70
26909;DHT22;14477;51.038;4.588;2023-04-16T13:04:13;13.60;97.90
26909;DHT22;14477;51.038;4.588;2023-04-16T13:06:39;13.70;97.90
26909;DHT22;14477;51.038;4.588;2023-04-16T13:09:05;13.80;97.90
26909;DHT22;14477;51.038;4.588;2023-04-16T13:11:31;13.90;97.90
26909;DHT22;14477;51.038;4.588;2023-04-16T13:13:57;13.90;98.00
26909;DHT22;14477;51.038;4.588;2023-04-16T13:16:23;14.00;98.10
26909;DHT22;14477;51.038;4.588;2023-04-16T13:18:49;14.10;98.20
26909;DHT22;14477;51.038;4.588;2023-04-16T13:21:15;14.20;98.10
26909;DHT22;14477;51.038;4.588;2023-04-16T13:23:40;14.30;97.80
26909;DHT22;14477;51.038;4.588;2023-04-16T13:26:06;14.30;97.80
26909;DHT22;14477;51.038;4.588;2023-04-16T13:28:32;14.40;97.90
26909;DHT22;14477;51.038;4.588;2023-04-16T13:30:58;14.50;98.20
26909;DHT22;14477;51.038;4.588;2023-04-16T13:33:24;14.60;98.50
26909;DHT22;14477;51.038;4.588;2023-04-16T13:35:50;14.70;98.80
26909;DHT22;14477;51.038;4.588;2023-04-16T13:38:16;14.80;98.80
26909;DHT22;14477;51.038;4.588;2023-04-16T13:40:42;15.00;98.80
26909;DHT22;14477;51.038;4.588;2023-04-16T13:43:08;15.10;98.70
26909;DHT22;14477;51.038;4.588;2023-04-16T13:45:33;15.20;98.50
26909;DHT22;14477;51.038;4.588;2023-04-16T13:48:01;15.30;98.30
26909;DHT22;14477;51.038;4.588;2023-04-16T13:50:27;15.40;98.10
26909;DHT22;14477;51.038;4.588;2023-04-16T13:52:53;15.40;97.90
26909;DHT22;14477;51.038;4.588;2023-04-16T13:55:18;15.40;97.40
26909;DHT22;14477;51.038;4.588;2023-04-16T13:57:45;15.40;97.10
26909;DHT22;14477;51.038;4.588;2023-04-16T14:00:12;15.40;96.90
26909;DHT22;14477;51.038;4.588;2023-04-16T14:02:39;15.30;96.70
26909;DHT22;14477;51.038;4.588;2023-04-16T14:05:06;15.20;96.70
26909;DHT22;14477;51.038;4.588;2023-04-16T14:07:32;15.20;96.60
26909;DHT22;14477;51.038;4.588;2023-04-16T14:09:58;15.10;96.60
26909;DHT22;14477;51.038;4.588;2023-04-16T14:12:24;15.10;96.40
26909;DHT22;14477;51.038;4.588;2023-04-16T14:14:49;15.00;96.40
26909;DHT22;14477;51.038;4.588;2023-04-16T14:17:15;15.00;96.40
26909;DHT22;14477;51.038;4.588;2023-04-16T14:19:41;14.90;96.30
26909;DHT22;14477;51.038;4.588;2023-04-16T14:22:07;14.90;96.20
26909;DHT22;14477;51.038;4.588;2023-04-16T14:24:32;14.80;96.20
26909;DHT22;14477;51.038;4.588;2023-04-16T14:26:58;14.80;96.20
26909;DHT22;14477;51.038;4.588;2023-04-16T14:29:24;14.70;96.20
26909;DHT22;14477;51.038;4.588;2023-04-16T14:31:50;14.70;96.30
26909;DHT22;14477;51.038;4.588;2023-04-16T14:34:16;14.60;96.30
26909;DHT22;14477;51.038;4.588;2023-04-16T14:36:42;14.60;96.40
26909;DHT22;14477;51.038;4.588;2023-04-16T14:39:08;14.60;96.60
26909;DHT22;14477;51.038;4.588;2023-04-16T14:41:34;14.70;96.80
26909;DHT22;14477;51.038;4.588;2023-04-16T14:44:00;14.70;96.90
26909;DHT22;14477;51.038;4.588;2023-04-16T14:46:26;14.80;97.00
26909;DHT22;14477;51.038;4.588;2023-04-16T14:48:52;14.80;96.90
26909;DHT22;14477;51.038;4.588;2023-04-16T14:51:18;14.80;96.80
26909;DHT22;14477;51.038;4.588;2023-04-16T14:53:43;14.90;96.80
26909;DHT22;14477;51.038;4.588;2023-04-16T14:56:10;14.90;96.90
26909;DHT22;14477;51.038;4.588;2023-04-16T14:58:37;15.00;96.90
26909;DHT22;14477;51.038;4.588;2023-04-16T15:01:02;15.00;96.90
26909;DHT22;14477;51.038;4.588;2023-04-16T15:03:30;15.10;96.90
26909;DHT22;14477;51.038;4.588;2023-04-16T15:05:57;15.10;96.90
26909;DHT22;14477;51.038;4.588;2023-04-16T15:08:23;15.10;96.90
26909;DHT22;14477;51.038;4.588;2023-04-16T15:10:49;15.20;96.80
26909;DHT22;14477;51.038;4.588;2023-04-16T15:13:16;15.20;96.60
26909;DHT22;14477;51.038;4.588;2023-04-16T15:15:42;15.20;96.50
26909;DHT22;14477;51.038;4.588;2023-04-16T15:18:08;15.20;96.40
26909;DHT22;14477;51.038;4.588;2023-04-16T15:20:33;15.20;96.40
26909;DHT22;14477;51.038;4.588;2023-04-16T15:23:00;15.20;96.30
26909;DHT22;14477;51.038;4.588;2023-04-16T15:25:26;15.20;96.30
26909;DHT22;14477;51.038;4.588;2023-04-16T15:27:51;15.20;96.20
26909;DHT22;14477;51.038;4.588;2023-04-16T15:30:17;15.10;96.10
26909;DHT22;14477;51.038;4.588;2023-04-16T15:32:43;15.10;96.00
26909;DHT22;14477;51.038;4.588;2023-04-16T15:35:09;15.10;96.00